Capitol Reef National Park, UT

4:12 PM MDT on September 21, 2014 (GMT -0600)
HADS FISH LAKE RANGER STATION NEAR KO UT US NWS | Change Station
CLOSE
Current Station
Personal Weather Station
Location: Koosharem, UT
Elevation: 8879 ft
Nearby Weather Stations
Active Advisory: Special Statement Active Notice: Public Information Statement

Elev 8879 ft 38.55 °N, 111.72 °W | Updated 57 minutes ago

Overcast
Overcast
51 °F
Feels Like 51 °F
N
4
Wind Variable Wind from ESE
Gusts 5.0 mph

Today
High -- | Low -- °F
--% Chance of Precip.
Yesterday
High -- | Low -- °F
Precip. -- in
7:13 AM 7:25 PM
Waning Crescent, 5% visible
Pressure 30.00 in
Visibility 10.0 miles
Clouds Few 3100 ft
Few 5000 ft
Dew Point 46 °F
Humidity 83%
Rainfall -999.00 in
Snow Depth 0 in , 0 in , 0 in
UV 5 out of 12
Pollen 4.30 out of 12
Air Quality Not available.
Flu Activity Not available.
METAR KBCE 212153Z AUTO 33005KT 10SM FEW031 FEW050 17/11 A3031 RMK AO2 SLP157 T01720111

More Conditions Fewer Conditions

Pressure 30.00 in
Visibility 10.0 miles
Clouds Few 3100 ft
Few 5000 ft
Dew Point 46 °F
Humidity 83%
Rainfall -999.00 in
Snow Depth 0 in , 0 in , 0 in
UV 5 out of 12
Pollen 4.30 out of 12
Air Quality Not available.
Flu Activity Not available.
METAR KBCE 212153Z AUTO 33005KT 10SM FEW031 FEW050 17/11 A3031 RMK AO2 SLP157 T01720111

More Conditions Fewer Conditions

Nowcast | as of 4:08 PM MDT on September 21, 2014

Scattered showers and thunderstorms over southern and central Utah will continue through this afternoon. The strongest storms at 400 PM were located just southwest of kodachrome basin...across western Beaver County...and just over the Arizona border southwest of St. George. Some of these storms will produce locally heavy rain...frequent lightning...gusty winds and small hail.

×

10-Day Weather Forecast

Almanac

Astronomy

Sep. 21, 2014 Rise Set
Actual Time 7:13 AM MDT 7:25 PM MDT
Civil Twilight 6:47 AM MDT 7:51 PM MDT
Nautical Twilight 6:16 AM MDT 8:22 PM MDT
Astronomical Twilight 5:45 AM MDT 8:53 PM MDT
Moon 4:52 AM MDT 6:02 PM MDT
Length of Visible Light 13h 04m
Length of Day
12h 11m
Tomorrow will be 2m 26s shorter.
Waning Crescent, 5% of the Moon is Illuminated
Today
Waning Crescent
Sep 24
New
Oct 1
First Quarter
Oct 8
Full
Oct 15
Last Quarter

Today's Extremes

State Highs State Lows

Community

WunderPhotos

Upload Photos

1,755,269 photos uploaded!

WunderBlogs® & News

Nearby

Snow Depth

Station Depth Elevation
Five Points Lake 0 in 10920 ft
Mill-d North 0 in 8960 ft
Louis Meadow 0 in 6700 ft
Lakefork #1 2 in 10100 ft
Seeley Creek 0 in 10000 ft

Earthquake Activity

City Distance Mag. Time & Date
No recent earthquake activity has been reported nearby.
Minimum magnitude displayed is 2.5.

Coastal Water Temperatures

Place Temperature
No Stations Reporting

Nearby Weather Stations